Terminal Aerodrome Forecast
Issued by NWS Green Bay, WI

Home | Current Version | Previous Version | Graphics & Text | Print | Product List | Glossary On
Versions: 1 2 3 4 5 6 7 8 9 10 11 12 13 14 15 16 17 18 19 20 21
000
FTUS43 KGRB 272314 AAB
TAFGRB
TAF AMD
KGRB 272314Z 2723/2818 04007KT 3SM -SHRA BKN007
     FM281000 26002KT 2SM BR BKN009
      TEMPO 2810/2813 1/2SM FG VV001
     FM281400 29004KT P6SM SCT040=

USA.gov is the U.S. government's official web portal to all federal, state and local government web resources and services.